sensor_id;sensor_type;location;lat;lon;timestamp;temperature;humidity
68257;DHT22;55069;51.568;4.656;2024-02-23T00:01:48;5.05;98.45
68257;DHT22;55069;51.568;4.656;2024-02-23T00:04:14;4.99;98.22
68257;DHT22;55069;51.568;4.656;2024-02-23T00:06:40;5.04;98.14
68257;DHT22;55069;51.568;4.656;2024-02-23T00:09:05;5.00;97.65
68257;DHT22;55069;51.568;4.656;2024-02-23T00:11:31;5.02;97.67
68257;DHT22;55069;51.568;4.656;2024-02-23T00:13:59;5.05;97.28
68257;DHT22;55069;51.568;4.656;2024-02-23T00:16:24;5.11;97.55
68257;DHT22;55069;51.568;4.656;2024-02-23T00:18:51;5.12;97.63
68257;DHT22;55069;51.568;4.656;2024-02-23T00:21:17;5.09;97.39
68257;DHT22;55069;51.568;4.656;2024-02-23T00:23:42;5.04;97.76
68257;DHT22;55069;51.568;4.656;2024-02-23T00:26:08;5.06;97.64
68257;DHT22;55069;51.568;4.656;2024-02-23T00:28:34;5.00;97.92
68257;DHT22;55069;51.568;4.656;2024-02-23T00:30:59;4.95;97.67
68257;DHT22;55069;51.568;4.656;2024-02-23T00:33:25;4.93;97.62
68257;DHT22;55069;51.568;4.656;2024-02-23T00:35:50;4.85;97.56
68257;DHT22;55069;51.568;4.656;2024-02-23T00:38:16;4.79;97.66
68257;DHT22;55069;51.568;4.656;2024-02-23T00:40:41;4.78;97.60
68257;DHT22;55069;51.568;4.656;2024-02-23T00:43:07;4.74;98.23
68257;DHT22;55069;51.568;4.656;2024-02-23T00:45:32;4.72;97.87
68257;DHT22;55069;51.568;4.656;2024-02-23T00:47:58;4.74;98.00
68257;DHT22;55069;51.568;4.656;2024-02-23T00:50:24;4.62;98.10
68257;DHT22;55069;51.568;4.656;2024-02-23T00:52:51;4.67;97.73
68257;DHT22;55069;51.568;4.656;2024-02-23T00:55:17;4.67;97.61
68257;DHT22;55069;51.568;4.656;2024-02-23T00:57:43;4.62;97.51
68257;DHT22;55069;51.568;4.656;2024-02-23T01:00:09;4.64;98.15
68257;DHT22;55069;51.568;4.656;2024-02-23T01:02:35;4.64;98.00
68257;DHT22;55069;51.568;4.656;2024-02-23T01:05:00;4.61;98.09
68257;DHT22;55069;51.568;4.656;2024-02-23T01:07:26;4.58;98.14
68257;DHT22;55069;51.568;4.656;2024-02-23T01:09:51;4.51;98.04
68257;DHT22;55069;51.568;4.656;2024-02-23T01:12:17;4.54;97.62
68257;DHT22;55069;51.568;4.656;2024-02-23T01:14:42;4.53;97.97
68257;DHT22;55069;51.568;4.656;2024-02-23T01:17:08;4.53;97.47
68257;DHT22;55069;51.568;4.656;2024-02-23T01:19:34;4.50;98.13
68257;DHT22;55069;51.568;4.656;2024-02-23T01:21:59;4.47;98.20
68257;DHT22;55069;51.568;4.656;2024-02-23T01:24:28;4.43;97.54
68257;DHT22;55069;51.568;4.656;2024-02-23T01:26:55;4.47;98.21
68257;DHT22;55069;51.568;4.656;2024-02-23T01:29:21;4.47;98.47
68257;DHT22;55069;51.568;4.656;2024-02-23T01:31:48;4.54;98.27
68257;DHT22;55069;51.568;4.656;2024-02-23T01:34:14;4.58;98.53
68257;DHT22;55069;51.568;4.656;2024-02-23T01:36:39;4.68;98.46
68257;DHT22;55069;51.568;4.656;2024-02-23T01:39:05;4.68;98.18
68257;DHT22;55069;51.568;4.656;2024-02-23T01:41:31;4.65;97.67
68257;DHT22;55069;51.568;4.656;2024-02-23T01:43:57;4.57;97.58
68257;DHT22;55069;51.568;4.656;2024-02-23T01:46:23;4.58;97.92
68257;DHT22;55069;51.568;4.656;2024-02-23T01:48:48;4.53;97.22
68257;DHT22;55069;51.568;4.656;2024-02-23T01:51:14;4.48;97.54
68257;DHT22;55069;51.568;4.656;2024-02-23T01:53:40;4.50;97.92
68257;DHT22;55069;51.568;4.656;2024-02-23T01:56:06;4.54;97.33
68257;DHT22;55069;51.568;4.656;2024-02-23T01:58:33;4.51;97.42
68257;DHT22;55069;51.568;4.656;2024-02-23T02:01:00;4.47;97.15
68257;DHT22;55069;51.568;4.656;2024-02-23T02:03:26;4.43;97.44
68257;DHT22;55069;51.568;4.656;2024-02-23T02:05:52;4.44;97.38
68257;DHT22;55069;51.568;4.656;2024-02-23T02:08:19;4.47;96.61
68257;DHT22;55069;51.568;4.656;2024-02-23T02:10:45;4.48;96.70
68257;DHT22;55069;51.568;4.656;2024-02-23T02:13:12;4.44;96.60
68257;DHT22;55069;51.568;4.656;2024-02-23T02:15:38;4.51;97.39
68257;DHT22;55069;51.568;4.656;2024-02-23T02:18:04;4.51;97.32
68257;DHT22;55069;51.568;4.656;2024-02-23T02:20:32;4.44;97.25
68257;DHT22;55069;51.568;4.656;2024-02-23T02:22:58;4.38;97.60
68257;DHT22;55069;51.568;4.656;2024-02-23T02:25:24;4.36;97.60
68257;DHT22;55069;51.568;4.656;2024-02-23T02:27:49;4.37;98.02
68257;DHT22;55069;51.568;4.656;2024-02-23T02:30:15;4.36;97.86
68257;DHT22;55069;51.568;4.656;2024-02-23T02:32:41;4.36;97.94
68257;DHT22;55069;51.568;4.656;2024-02-23T02:35:07;4.36;97.74
68257;DHT22;55069;51.568;4.656;2024-02-23T02:37:32;4.33;97.98
68257;DHT22;55069;51.568;4.656;2024-02-23T02:39:58;4.34;97.97
68257;DHT22;55069;51.568;4.656;2024-02-23T02:42:23;4.32;97.54
68257;DHT22;55069;51.568;4.656;2024-02-23T02:44:49;4.30;98.27
68257;DHT22;55069;51.568;4.656;2024-02-23T02:47:14;4.27;97.23
68257;DHT22;55069;51.568;4.656;2024-02-23T02:49:40;4.30;97.51
68257;DHT22;55069;51.568;4.656;2024-02-23T02:52:06;4.24;97.78
68257;DHT22;55069;51.568;4.656;2024-02-23T02:54:31;4.23;98.00
68257;DHT22;55069;51.568;4.656;2024-02-23T02:56:57;4.26;97.61
68257;DHT22;55069;51.568;4.656;2024-02-23T02:59:23;4.27;97.44
68257;DHT22;55069;51.568;4.656;2024-02-23T03:01:48;4.29;97.58
68257;DHT22;55069;51.568;4.656;2024-02-23T03:04:14;4.23;97.47
68257;DHT22;55069;51.568;4.656;2024-02-23T03:06:40;4.20;97.68
68257;DHT22;55069;51.568;4.656;2024-02-23T03:09:05;4.26;97.30
68257;DHT22;55069;51.568;4.656;2024-02-23T03:11:32;4.23;97.87
68257;DHT22;55069;51.568;4.656;2024-02-23T03:13:58;4.24;97.94
68257;DHT22;55069;51.568;4.656;2024-02-23T03:16:23;4.16;97.72
68257;DHT22;55069;51.568;4.656;2024-02-23T03:18:51;4.20;98.02
68257;DHT22;55069;51.568;4.656;2024-02-23T03:21:17;4.17;98.07
68257;DHT22;55069;51.568;4.656;2024-02-23T03:23:43;4.17;98.17
68257;DHT22;55069;51.568;4.656;2024-02-23T03:26:08;4.14;98.22
68257;DHT22;55069;51.568;4.656;2024-02-23T03:28:34;4.16;97.97
68257;DHT22;55069;51.568;4.656;2024-02-23T03:31:00;4.14;98.30
68257;DHT22;55069;51.568;4.656;2024-02-23T03:33:26;4.17;97.67
68257;DHT22;55069;51.568;4.656;2024-02-23T03:35:52;4.21;97.77
68257;DHT22;55069;51.568;4.656;2024-02-23T03:38:17;4.26;97.30
68257;DHT22;55069;51.568;4.656;2024-02-23T03:40:43;4.26;97.60
68257;DHT22;55069;51.568;4.656;2024-02-23T03:43:08;4.20;97.76
68257;DHT22;55069;51.568;4.656;2024-02-23T03:45:34;4.21;97.42
68257;DHT22;55069;51.568;4.656;2024-02-23T03:48:00;4.20;97.68
68257;DHT22;55069;51.568;4.656;2024-02-23T03:50:25;4.19;97.58
68257;DHT22;55069;51.568;4.656;2024-02-23T03:52:51;4.17;97.72
68257;DHT22;55069;51.568;4.656;2024-02-23T03:55:16;4.21;97.38
68257;DHT22;55069;51.568;4.656;2024-02-23T03:57:42;4.21;97.76
68257;DHT22;55069;51.568;4.656;2024-02-23T04:00:07;4.16;97.65
68257;DHT22;55069;51.568;4.656;2024-02-23T04:02:40;4.19;97.92
68257;DHT22;55069;51.568;4.656;2024-02-23T04:05:06;4.23;97.33
68257;DHT22;55069;51.568;4.656;2024-02-23T04:07:32;4.24;97.27
68257;DHT22;55069;51.568;4.656;2024-02-23T04:09:58;4.33;97.71
68257;DHT22;55069;51.568;4.656;2024-02-23T04:12:24;4.43;97.12
68257;DHT22;55069;51.568;4.656;2024-02-23T04:14:49;4.50;97.16
68257;DHT22;55069;51.568;4.656;2024-02-23T04:17:15;4.60;97.32
68257;DHT22;55069;51.568;4.656;2024-02-23T04:19:41;4.64;97.03
68257;DHT22;55069;51.568;4.656;2024-02-23T04:22:08;4.62;96.47
68257;DHT22;55069;51.568;4.656;2024-02-23T04:24:40;4.69;96.64
68257;DHT22;55069;51.568;4.656;2024-02-23T04:27:06;4.74;96.60
68257;DHT22;55069;51.568;4.656;2024-02-23T04:29:32;4.82;96.14
68257;DHT22;55069;51.568;4.656;2024-02-23T04:31:59;4.88;96.14
68257;DHT22;55069;51.568;4.656;2024-02-23T04:34:24;4.88;95.68
68257;DHT22;55069;51.568;4.656;2024-02-23T04:36:50;4.96;95.84
68257;DHT22;55069;51.568;4.656;2024-02-23T04:39:15;4.99;95.93
68257;DHT22;55069;51.568;4.656;2024-02-23T04:41:41;5.05;95.63
68257;DHT22;55069;51.568;4.656;2024-02-23T04:44:06;5.06;95.61
68257;DHT22;55069;51.568;4.656;2024-02-23T04:46:32;5.12;95.60
68257;DHT22;55069;51.568;4.656;2024-02-23T04:48:59;5.11;95.21
68257;DHT22;55069;51.568;4.656;2024-02-23T04:51:25;5.11;94.52
68257;DHT22;55069;51.568;4.656;2024-02-23T04:53:51;5.13;94.98
68257;DHT22;55069;51.568;4.656;2024-02-23T04:56:16;5.09;94.34
68257;DHT22;55069;51.568;4.656;2024-02-23T04:58:43;5.12;94.54
68257;DHT22;55069;51.568;4.656;2024-02-23T05:01:09;5.11;94.80
68257;DHT22;55069;51.568;4.656;2024-02-23T05:03:34;5.06;94.48
68257;DHT22;55069;51.568;4.656;2024-02-23T05:06:00;5.06;94.61
68257;DHT22;55069;51.568;4.656;2024-02-23T05:08:26;5.04;94.51
68257;DHT22;55069;51.568;4.656;2024-02-23T05:10:53;5.02;94.49
68257;DHT22;55069;51.568;4.656;2024-02-23T05:13:18;4.99;94.49
68257;DHT22;55069;51.568;4.656;2024-02-23T05:15:44;4.93;95.33
68257;DHT22;55069;51.568;4.656;2024-02-23T05:18:10;4.92;94.87
68257;DHT22;55069;51.568;4.656;2024-02-23T05:20:35;4.88;94.92
68257;DHT22;55069;51.568;4.656;2024-02-23T05:23:01;4.88;94.86
68257;DHT22;55069;51.568;4.656;2024-02-23T05:25:26;4.74;95.42
68257;DHT22;55069;51.568;4.656;2024-02-23T05:27:52;4.72;95.40
68257;DHT22;55069;51.568;4.656;2024-02-23T05:30:18;4.71;95.36
68257;DHT22;55069;51.568;4.656;2024-02-23T05:32:43;4.75;95.63
68257;DHT22;55069;51.568;4.656;2024-02-23T05:35:09;4.74;95.54
68257;DHT22;55069;51.568;4.656;2024-02-23T05:37:37;4.72;95.48
68257;DHT22;55069;51.568;4.656;2024-02-23T05:40:04;4.77;95.33
68257;DHT22;55069;51.568;4.656;2024-02-23T05:42:38;4.79;95.03
68257;DHT22;55069;51.568;4.656;2024-02-23T05:45:04;4.88;94.43
68257;DHT22;55069;51.568;4.656;2024-02-23T05:47:30;4.91;94.41
68257;DHT22;55069;51.568;4.656;2024-02-23T05:49:56;4.96;94.53
68257;DHT22;55069;51.568;4.656;2024-02-23T05:52:21;5.04;94.13
68257;DHT22;55069;51.568;4.656;2024-02-23T05:54:47;5.08;93.66
68257;DHT22;55069;51.568;4.656;2024-02-23T05:57:13;5.15;93.19
68257;DHT22;55069;51.568;4.656;2024-02-23T05:59:38;5.16;93.40
68257;DHT22;55069;51.568;4.656;2024-02-23T06:02:04;5.16;92.93
68257;DHT22;55069;51.568;4.656;2024-02-23T06:04:29;5.15;93.34
68257;DHT22;55069;51.568;4.656;2024-02-23T06:06:55;5.16;93.52
68257;DHT22;55069;51.568;4.656;2024-02-23T06:09:21;5.20;93.13
68257;DHT22;55069;51.568;4.656;2024-02-23T06:11:46;5.19;93.24
68257;DHT22;55069;51.568;4.656;2024-02-23T06:14:12;5.23;93.35
68257;DHT22;55069;51.568;4.656;2024-02-23T06:16:37;5.22;93.05
68257;DHT22;55069;51.568;4.656;2024-02-23T06:19:03;5.26;92.78
68257;DHT22;55069;51.568;4.656;2024-02-23T06:21:29;5.30;92.77
68257;DHT22;55069;51.568;4.656;2024-02-23T06:23:55;5.26;92.89
68257;DHT22;55069;51.568;4.656;2024-02-23T06:26:21;5.20;92.87
68257;DHT22;55069;51.568;4.656;2024-02-23T06:28:47;5.25;92.49
68257;DHT22;55069;51.568;4.656;2024-02-23T06:31:14;5.22;92.53
68257;DHT22;55069;51.568;4.656;2024-02-23T06:33:39;5.27;93.11
68257;DHT22;55069;51.568;4.656;2024-02-23T06:36:06;5.29;92.28
68257;DHT22;55069;51.568;4.656;2024-02-23T06:38:33;5.25;92.32
68257;DHT22;55069;51.568;4.656;2024-02-23T06:40:59;5.32;92.23
68257;DHT22;55069;51.568;4.656;2024-02-23T06:43:24;5.32;92.07
68257;DHT22;55069;51.568;4.656;2024-02-23T06:45:50;5.39;91.17
68257;DHT22;55069;51.568;4.656;2024-02-23T06:48:16;5.42;90.88
68257;DHT22;55069;51.568;4.656;2024-02-23T06:50:42;5.37;91.32
68257;DHT22;55069;51.568;4.656;2024-02-23T06:53:08;5.39;91.80
68257;DHT22;55069;51.568;4.656;2024-02-23T06:55:36;5.40;91.60
68257;DHT22;55069;51.568;4.656;2024-02-23T06:58:02;5.39;91.89
68257;DHT22;55069;51.568;4.656;2024-02-23T07:00:30;5.46;91.18
68257;DHT22;55069;51.568;4.656;2024-02-23T07:02:56;5.47;90.67
68257;DHT22;55069;51.568;4.656;2024-02-23T07:05:24;5.50;91.12
68257;DHT22;55069;51.568;4.656;2024-02-23T07:07:50;5.58;91.19
68257;DHT22;55069;51.568;4.656;2024-02-23T07:10:16;5.58;90.11
68257;DHT22;55069;51.568;4.656;2024-02-23T07:12:43;5.57;90.51
68257;DHT22;55069;51.568;4.656;2024-02-23T07:15:09;5.58;90.05
68257;DHT22;55069;51.568;4.656;2024-02-23T07:17:35;5.58;89.97
68257;DHT22;55069;51.568;4.656;2024-02-23T07:20:00;5.54;90.41
68257;DHT22;55069;51.568;4.656;2024-02-23T07:22:33;5.58;90.53
68257;DHT22;55069;51.568;4.656;2024-02-23T07:24:59;5.55;90.39
68257;DHT22;55069;51.568;4.656;2024-02-23T07:27:26;5.57;90.17
68257;DHT22;55069;51.568;4.656;2024-02-23T07:29:52;5.58;90.17
68257;DHT22;55069;51.568;4.656;2024-02-23T07:32:17;5.58;90.77
68257;DHT22;55069;51.568;4.656;2024-02-23T07:34:43;5.64;90.27
68257;DHT22;55069;51.568;4.656;2024-02-23T07:37:08;5.68;90.76
68257;DHT22;55069;51.568;4.656;2024-02-23T07:39:34;5.67;89.68
68257;DHT22;55069;51.568;4.656;2024-02-23T07:42:00;5.68;90.30
68257;DHT22;55069;51.568;4.656;2024-02-23T07:44:25;5.74;90.49
68257;DHT22;55069;51.568;4.656;2024-02-23T07:46:51;5.78;90.60
68257;DHT22;55069;51.568;4.656;2024-02-23T07:49:19;5.75;89.96
68257;DHT22;55069;51.568;4.656;2024-02-23T07:51:45;5.77;90.86
68257;DHT22;55069;51.568;4.656;2024-02-23T07:54:10;5.82;90.76
68257;DHT22;55069;51.568;4.656;2024-02-23T07:56:36;5.77;91.32
68257;DHT22;55069;51.568;4.656;2024-02-23T07:59:01;5.77;91.07
68257;DHT22;55069;51.568;4.656;2024-02-23T08:01:28;5.75;90.88
68257;DHT22;55069;51.568;4.656;2024-02-23T08:03:54;5.73;90.68
68257;DHT22;55069;51.568;4.656;2024-02-23T08:06:19;5.81;91.16
68257;DHT22;55069;51.568;4.656;2024-02-23T08:08:46;5.78;91.81
68257;DHT22;55069;51.568;4.656;2024-02-23T08:11:12;5.77;91.94
68257;DHT22;55069;51.568;4.656;2024-02-23T08:13:39;5.75;92.36
68257;DHT22;55069;51.568;4.656;2024-02-23T08:16:06;5.77;92.48
68257;DHT22;55069;51.568;4.656;2024-02-23T08:18:31;5.70;93.35
68257;DHT22;55069;51.568;4.656;2024-02-23T08:20:59;5.65;94.76
68257;DHT22;55069;51.568;4.656;2024-02-23T08:23:27;5.67;95.03
68257;DHT22;55069;51.568;4.656;2024-02-23T08:25:53;5.67;94.32
68257;DHT22;55069;51.568;4.656;2024-02-23T08:28:19;5.74;94.87
68257;DHT22;55069;51.568;4.656;2024-02-23T08:30:44;5.75;94.94
68257;DHT22;55069;51.568;4.656;2024-02-23T08:33:11;5.78;94.92
68257;DHT22;55069;51.568;4.656;2024-02-23T08:35:36;5.77;94.92
68257;DHT22;55069;51.568;4.656;2024-02-23T08:38:02;5.75;94.75
68257;DHT22;55069;51.568;4.656;2024-02-23T08:40:27;5.79;95.05
68257;DHT22;55069;51.568;4.656;2024-02-23T08:42:53;5.74;94.70
68257;DHT22;55069;51.568;4.656;2024-02-23T08:45:18;5.73;95.06
68257;DHT22;55069;51.568;4.656;2024-02-23T08:47:44;5.70;95.22
68257;DHT22;55069;51.568;4.656;2024-02-23T08:50:10;5.63;95.38
68257;DHT22;55069;51.568;4.656;2024-02-23T08:52:35;5.58;96.18
68257;DHT22;55069;51.568;4.656;2024-02-23T08:55:01;5.61;96.65
68257;DHT22;55069;51.568;4.656;2024-02-23T08:57:27;5.58;96.69
68257;DHT22;55069;51.568;4.656;2024-02-23T08:59:53;5.60;96.76
68257;DHT22;55069;51.568;4.656;2024-02-23T09:02:18;5.61;96.88
68257;DHT22;55069;51.568;4.656;2024-02-23T09:04:45;5.70;96.73
68257;DHT22;55069;51.568;4.656;2024-02-23T09:07:11;5.87;96.49
68257;DHT22;55069;51.568;4.656;2024-02-23T09:09:37;5.97;96.18
68257;DHT22;55069;51.568;4.656;2024-02-23T09:12:03;6.02;95.64
68257;DHT22;55069;51.568;4.656;2024-02-23T09:14:29;6.09;94.77
68257;DHT22;55069;51.568;4.656;2024-02-23T09:16:55;6.16;94.82
68257;DHT22;55069;51.568;4.656;2024-02-23T09:19:20;6.18;94.71
68257;DHT22;55069;51.568;4.656;2024-02-23T09:21:46;6.18;95.07
68257;DHT22;55069;51.568;4.656;2024-02-23T09:24:12;6.29;95.29
68257;DHT22;55069;51.568;4.656;2024-02-23T09:26:38;6.39;95.18
68257;DHT22;55069;51.568;4.656;2024-02-23T09:29:04;6.36;94.16
68257;DHT22;55069;51.568;4.656;2024-02-23T09:31:30;6.43;94.04
68257;DHT22;55069;51.568;4.656;2024-02-23T09:33:57;6.51;94.21
68257;DHT22;55069;51.568;4.656;2024-02-23T09:36:23;6.49;93.70
68257;DHT22;55069;51.568;4.656;2024-02-23T09:38:50;6.50;92.78
68257;DHT22;55069;51.568;4.656;2024-02-23T09:41:23;6.60;93.47
68257;DHT22;55069;51.568;4.656;2024-02-23T09:43:50;6.76;92.85
68257;DHT22;55069;51.568;4.656;2024-02-23T09:46:17;6.80;92.35
68257;DHT22;55069;51.568;4.656;2024-02-23T09:48:43;6.76;92.75
68257;DHT22;55069;51.568;4.656;2024-02-23T09:51:12;6.68;92.64
68257;DHT22;55069;51.568;4.656;2024-02-23T09:53:39;6.73;92.31
68257;DHT22;55069;51.568;4.656;2024-02-23T09:56:05;6.77;92.42
68257;DHT22;55069;51.568;4.656;2024-02-23T09:58:35;6.78;92.42
68257;DHT22;55069;51.568;4.656;2024-02-23T10:01:02;6.84;91.52
68257;DHT22;55069;51.568;4.656;2024-02-23T10:03:28;6.85;91.66
68257;DHT22;55069;51.568;4.656;2024-02-23T10:05:56;7.01;92.20
68257;DHT22;55069;51.568;4.656;2024-02-23T10:08:22;7.05;91.08
68257;DHT22;55069;51.568;4.656;2024-02-23T10:10:48;6.97;91.45
68257;DHT22;55069;51.568;4.656;2024-02-23T10:13:24;6.97;91.51
68257;DHT22;55069;51.568;4.656;2024-02-23T10:15:50;6.98;91.49
68257;DHT22;55069;51.568;4.656;2024-02-23T10:18:16;6.97;91.66
68257;DHT22;55069;51.568;4.656;2024-02-23T10:20:42;6.85;91.92
68257;DHT22;55069;51.568;4.656;2024-02-23T10:23:09;6.83;91.72
68257;DHT22;55069;51.568;4.656;2024-02-23T10:25:35;6.91;91.25
68257;DHT22;55069;51.568;4.656;2024-02-23T10:28:01;6.94;91.63
68257;DHT22;55069;51.568;4.656;2024-02-23T10:30:27;7.01;90.80
68257;DHT22;55069;51.568;4.656;2024-02-23T10:32:56;7.09;91.00
68257;DHT22;55069;51.568;4.656;2024-02-23T10:35:23;7.23;90.34
68257;DHT22;55069;51.568;4.656;2024-02-23T10:37:50;7.32;90.01
68257;DHT22;55069;51.568;4.656;2024-02-23T10:40:17;7.29;89.74
68257;DHT22;55069;51.568;4.656;2024-02-23T10:42:46;7.30;90.31
68257;DHT22;55069;51.568;4.656;2024-02-23T10:45:21;7.26;89.91
68257;DHT22;55069;51.568;4.656;2024-02-23T10:47:50;7.28;89.83
68257;DHT22;55069;51.568;4.656;2024-02-23T10:50:17;7.20;89.60
68257;DHT22;55069;51.568;4.656;2024-02-23T10:52:45;7.14;89.34
68257;DHT22;55069;51.568;4.656;2024-02-23T10:55:11;7.07;90.66
68257;DHT22;55069;51.568;4.656;2024-02-23T10:57:37;7.12;89.94
68257;DHT22;55069;51.568;4.656;2024-02-23T11:00:04;7.29;90.33
68257;DHT22;55069;51.568;4.656;2024-02-23T11:02:37;7.36;89.13
68257;DHT22;55069;51.568;4.656;2024-02-23T11:05:04;7.42;89.14
68257;DHT22;55069;51.568;4.656;2024-02-23T11:07:30;7.56;88.72
68257;DHT22;55069;51.568;4.656;2024-02-23T11:09:59;7.56;89.56
68257;DHT22;55069;51.568;4.656;2024-02-23T11:12:26;7.60;89.08
68257;DHT22;55069;51.568;4.656;2024-02-23T11:14:56;7.62;88.58
68257;DHT22;55069;51.568;4.656;2024-02-23T11:17:26;7.64;88.20
68257;DHT22;55069;51.568;4.656;2024-02-23T11:19:54;7.66;87.35
68257;DHT22;55069;51.568;4.656;2024-02-23T11:22:27;7.67;88.27
68257;DHT22;55069;51.568;4.656;2024-02-23T11:25:08;7.71;88.44
68257;DHT22;55069;51.568;4.656;2024-02-23T11:27:38;7.62;87.69
68257;DHT22;55069;51.568;4.656;2024-02-23T11:30:09;7.69;88.24
68257;DHT22;55069;51.568;4.656;2024-02-23T11:32:41;7.64;86.55
68257;DHT22;55069;51.568;4.656;2024-02-23T11:35:07;7.63;86.38
68257;DHT22;55069;51.568;4.656;2024-02-23T11:37:44;7.53;87.41
68257;DHT22;55069;51.568;4.656;2024-02-23T11:40:12;7.42;87.17
68257;DHT22;55069;51.568;4.656;2024-02-23T11:42:38;7.39;87.71
68257;DHT22;55069;51.568;4.656;2024-02-23T11:45:05;7.45;87.86
68257;DHT22;55069;51.568;4.656;2024-02-23T11:47:31;7.57;88.12
68257;DHT22;55069;51.568;4.656;2024-02-23T11:49:56;7.78;88.39
68257;DHT22;55069;51.568;4.656;2024-02-23T11:52:22;7.87;87.89
68257;DHT22;55069;51.568;4.656;2024-02-23T11:54:47;7.95;87.03
68257;DHT22;55069;51.568;4.656;2024-02-23T11:57:13;8.18;88.00
68257;DHT22;55069;51.568;4.656;2024-02-23T11:59:40;8.15;86.43
68257;DHT22;55069;51.568;4.656;2024-02-23T12:02:06;8.14;86.87
68257;DHT22;55069;51.568;4.656;2024-02-23T12:04:32;8.11;85.33
68257;DHT22;55069;51.568;4.656;2024-02-23T12:06:58;8.35;86.11
68257;DHT22;55069;51.568;4.656;2024-02-23T12:09:24;8.39;85.91
68257;DHT22;55069;51.568;4.656;2024-02-23T12:11:50;8.62;84.93
68257;DHT22;55069;51.568;4.656;2024-02-23T12:14:16;8.83;84.54
68257;DHT22;55069;51.568;4.656;2024-02-23T12:16:43;8.87;84.50
68257;DHT22;55069;51.568;4.656;2024-02-23T12:19:08;9.07;84.14
68257;DHT22;55069;51.568;4.656;2024-02-23T12:21:34;9.18;82.40
68257;DHT22;55069;51.568;4.656;2024-02-23T12:24:06;9.34;81.87
68257;DHT22;55069;51.568;4.656;2024-02-23T12:26:33;9.45;81.08
68257;DHT22;55069;51.568;4.656;2024-02-23T12:29:02;9.36;80.58
68257;DHT22;55069;51.568;4.656;2024-02-23T12:31:33;9.57;80.35
68257;DHT22;55069;51.568;4.656;2024-02-23T12:34:00;9.93;78.90
68257;DHT22;55069;51.568;4.656;2024-02-23T12:36:25;10.08;78.25
68257;DHT22;55069;51.568;4.656;2024-02-23T12:38:51;10.20;79.13
68257;DHT22;55069;51.568;4.656;2024-02-23T12:41:16;10.17;77.98
68257;DHT22;55069;51.568;4.656;2024-02-23T12:43:42;10.00;79.07
68257;DHT22;55069;51.568;4.656;2024-02-23T12:46:07;9.80;77.58
68257;DHT22;55069;51.568;4.656;2024-02-23T12:48:37;9.69;79.59
68257;DHT22;55069;51.568;4.656;2024-02-23T12:51:03;9.70;79.86
68257;DHT22;55069;51.568;4.656;2024-02-23T12:53:36;9.69;77.69
68257;DHT22;55069;51.568;4.656;2024-02-23T12:56:04;9.89;78.47
68257;DHT22;55069;51.568;4.656;2024-02-23T12:58:31;9.66;78.82
68257;DHT22;55069;51.568;4.656;2024-02-23T13:00:57;9.59;80.72
68257;DHT22;55069;51.568;4.656;2024-02-23T13:03:24;9.40;80.25
68257;DHT22;55069;51.568;4.656;2024-02-23T13:05:50;9.53;80.34
68257;DHT22;55069;51.568;4.656;2024-02-23T13:08:16;9.59;79.56
68257;DHT22;55069;51.568;4.656;2024-02-23T13:10:41;9.76;80.53
68257;DHT22;55069;51.568;4.656;2024-02-23T13:13:07;9.55;79.69
68257;DHT22;55069;51.568;4.656;2024-02-23T13:15:32;9.50;79.91
68257;DHT22;55069;51.568;4.656;2024-02-23T13:17:58;9.40;79.44
68257;DHT22;55069;51.568;4.656;2024-02-23T13:20:24;9.34;80.38
68257;DHT22;55069;51.568;4.656;2024-02-23T13:22:52;9.25;80.42
68257;DHT22;55069;51.568;4.656;2024-02-23T13:25:18;9.18;80.21
68257;DHT22;55069;51.568;4.656;2024-02-23T13:27:44;9.24;81.73
68257;DHT22;55069;51.568;4.656;2024-02-23T13:30:10;9.17;80.73
68257;DHT22;55069;51.568;4.656;2024-02-23T13:32:35;9.24;81.69
68257;DHT22;55069;51.568;4.656;2024-02-23T13:35:01;9.21;81.76
68257;DHT22;55069;51.568;4.656;2024-02-23T13:37:29;9.29;81.97
68257;DHT22;55069;51.568;4.656;2024-02-23T13:39:55;9.42;81.51
68257;DHT22;55069;51.568;4.656;2024-02-23T13:42:20;9.49;80.75
68257;DHT22;55069;51.568;4.656;2024-02-23T13:44:46;9.52;81.26
68257;DHT22;55069;51.568;4.656;2024-02-23T13:47:12;9.56;81.15
68257;DHT22;55069;51.568;4.656;2024-02-23T13:49:37;9.46;81.33
68257;DHT22;55069;51.568;4.656;2024-02-23T13:52:05;9.50;81.35
68257;DHT22;55069;51.568;4.656;2024-02-23T13:54:31;9.69;81.27
68257;DHT22;55069;51.568;4.656;2024-02-23T13:56:57;9.73;81.71
68257;DHT22;55069;51.568;4.656;2024-02-23T13:59:22;9.63;80.67
68257;DHT22;55069;51.568;4.656;2024-02-23T14:01:48;9.43;80.79
68257;DHT22;55069;51.568;4.656;2024-02-23T14:04:13;9.27;80.83
68257;DHT22;55069;51.568;4.656;2024-02-23T14:06:39;9.10;81.64
68257;DHT22;55069;51.568;4.656;2024-02-23T14:09:04;9.12;81.32
68257;DHT22;55069;51.568;4.656;2024-02-23T14:11:30;9.18;83.18
68257;DHT22;55069;51.568;4.656;2024-02-23T14:13:56;9.15;81.34
68257;DHT22;55069;51.568;4.656;2024-02-23T14:16:22;9.19;80.98
68257;DHT22;55069;51.568;4.656;2024-02-23T14:18:49;9.22;80.03
68257;DHT22;55069;51.568;4.656;2024-02-23T14:21:15;9.22;81.08
68257;DHT22;55069;51.568;4.656;2024-02-23T14:23:41;9.15;80.43
68257;DHT22;55069;51.568;4.656;2024-02-23T14:26:07;9.07;81.09
68257;DHT22;55069;51.568;4.656;2024-02-23T14:28:33;9.19;81.42
68257;DHT22;55069;51.568;4.656;2024-02-23T14:30:58;9.19;80.85
68257;DHT22;55069;51.568;4.656;2024-02-23T14:33:24;9.17;82.52
68257;DHT22;55069;51.568;4.656;2024-02-23T14:35:50;9.11;82.31
68257;DHT22;55069;51.568;4.656;2024-02-23T14:38:15;9.04;82.68
68257;DHT22;55069;51.568;4.656;2024-02-23T14:40:42;9.04;81.90
68257;DHT22;55069;51.568;4.656;2024-02-23T14:43:07;9.08;81.81
68257;DHT22;55069;51.568;4.656;2024-02-23T14:45:33;9.08;81.48
68257;DHT22;55069;51.568;4.656;2024-02-23T14:47:58;9.05;82.06
68257;DHT22;55069;51.568;4.656;2024-02-23T14:50:24;9.11;81.49
68257;DHT22;55069;51.568;4.656;2024-02-23T14:52:50;9.10;81.67
68257;DHT22;55069;51.568;4.656;2024-02-23T14:55:16;9.08;82.40
68257;DHT22;55069;51.568;4.656;2024-02-23T14:57:42;9.15;82.67
68257;DHT22;55069;51.568;4.656;2024-02-23T15:00:10;9.11;83.55
68257;DHT22;55069;51.568;4.656;2024-02-23T15:02:38;9.21;83.02
68257;DHT22;55069;51.568;4.656;2024-02-23T15:05:05;9.19;81.82
68257;DHT22;55069;51.568;4.656;2024-02-23T15:07:32;9.15;82.26
68257;DHT22;55069;51.568;4.656;2024-02-23T15:09:58;9.08;81.92
68257;DHT22;55069;51.568;4.656;2024-02-23T15:12:24;9.00;82.89
68257;DHT22;55069;51.568;4.656;2024-02-23T15:14:53;8.88;83.28
68257;DHT22;55069;51.568;4.656;2024-02-23T15:17:19;8.85;84.10
68257;DHT22;55069;51.568;4.656;2024-02-23T15:19:44;8.83;82.84
68257;DHT22;55069;51.568;4.656;2024-02-23T15:22:10;8.84;82.43
68257;DHT22;55069;51.568;4.656;2024-02-23T15:24:40;8.81;82.87
68257;DHT22;55069;51.568;4.656;2024-02-23T15:27:08;8.85;83.29
68257;DHT22;55069;51.568;4.656;2024-02-23T15:29:34;8.98;82.31
68257;DHT22;55069;51.568;4.656;2024-02-23T15:32:00;9.11;82.24
68257;DHT22;55069;51.568;4.656;2024-02-23T15:34:26;9.03;82.05
68257;DHT22;55069;51.568;4.656;2024-02-23T15:36:51;9.00;82.73
68257;DHT22;55069;51.568;4.656;2024-02-23T15:39:17;8.98;81.52